sensor_id;sensor_type;location;lat;lon;timestamp;temperature;humidity
9265;DHT22;4669;49.594;10.958;2022-09-24T04:23:32;11.40;99.90
9265;DHT22;4669;49.594;10.958;2022-09-24T04:28:34;11.40;99.90
9265;DHT22;4669;49.594;10.958;2022-09-24T04:33:36;11.40;99.90
9265;DHT22;4669;49.594;10.958;2022-09-24T04:38:39;11.30;99.90
9265;DHT22;4669;49.594;10.958;2022-09-24T04:43:42;11.30;99.90
9265;DHT22;4669;49.594;10.958;2022-09-24T04:48:46;11.20;99.90
9265;DHT22;4669;49.594;10.958;2022-09-24T04:53:49;11.30;99.90
9265;DHT22;4669;49.594;10.958;2022-09-24T04:58:51;11.30;99.90
9265;DHT22;4669;49.594;10.958;2022-09-24T05:03:54;11.20;99.90
9265;DHT22;4669;49.594;10.958;2022-09-24T05:08:57;11.20;99.90
9265;DHT22;4669;49.594;10.958;2022-09-24T05:13:59;11.10;99.90
9265;DHT22;4669;49.594;10.958;2022-09-24T05:19:01;11.10;99.90
9265;DHT22;4669;49.594;10.958;2022-09-24T05:24:06;11.10;99.90
9265;DHT22;4669;49.594;10.958;2022-09-24T05:29:08;11.10;99.90
9265;DHT22;4669;49.594;10.958;2022-09-24T05:34:10;11.10;99.90
9265;DHT22;4669;49.594;10.958;2022-09-24T05:39:15;11.20;99.90
9265;DHT22;4669;49.594;10.958;2022-09-24T05:44:17;11.20;99.90
9265;DHT22;4669;49.594;10.958;2022-09-24T05:49:21;11.30;99.90
9265;DHT22;4669;49.594;10.958;2022-09-24T05:54:24;11.20;99.90
9265;DHT22;4669;49.594;10.958;2022-09-24T05:59:26;11.30;99.90
9265;DHT22;4669;49.594;10.958;2022-09-24T06:04:28;11.20;99.90
9265;DHT22;4669;49.594;10.958;2022-09-24T06:09:32;11.10;99.90
9265;DHT22;4669;49.594;10.958;2022-09-24T06:14:33;11.20;99.90
9265;DHT22;4669;49.594;10.958;2022-09-24T06:19:35;11.20;99.90
9265;DHT22;4669;49.594;10.958;2022-09-24T06:24:39;11.10;99.90
9265;DHT22;4669;49.594;10.958;2022-09-24T06:29:41;11.10;99.90
9265;DHT22;4669;49.594;10.958;2022-09-24T06:34:43;11.00;99.90
9265;DHT22;4669;49.594;10.958;2022-09-24T06:39:47;11.00;99.90
9265;DHT22;4669;49.594;10.958;2022-09-24T06:44:48;11.00;99.90
9265;DHT22;4669;49.594;10.958;2022-09-24T06:49:51;11.00;99.90
9265;DHT22;4669;49.594;10.958;2022-09-24T06:54:54;11.10;99.90
9265;DHT22;4669;49.594;10.958;2022-09-24T06:59:56;11.10;99.90
9265;DHT22;4669;49.594;10.958;2022-09-24T07:04:58;11.20;99.90
9265;DHT22;4669;49.594;10.958;2022-09-24T07:10:03;11.30;99.90
9265;DHT22;4669;49.594;10.958;2022-09-24T07:15:07;11.50;99.90
9265;DHT22;4669;49.594;10.958;2022-09-24T07:20:09;11.70;99.90
9265;DHT22;4669;49.594;10.958;2022-09-24T07:25:12;11.90;99.90
9265;DHT22;4669;49.594;10.958;2022-09-24T07:30:14;12.10;99.90
9265;DHT22;4669;49.594;10.958;2022-09-24T07:35:16;12.20;99.90
9265;DHT22;4669;49.594;10.958;2022-09-24T07:40:22;12.10;99.90
9265;DHT22;4669;49.594;10.958;2022-09-24T07:45:25;12.10;99.90
9265;DHT22;4669;49.594;10.958;2022-09-24T07:50:30;12.00;99.90
9265;DHT22;4669;49.594;10.958;2022-09-24T07:55:34;12.10;99.90
9265;DHT22;4669;49.594;10.958;2022-09-24T08:00:39;12.10;99.90
9265;DHT22;4669;49.594;10.958;2022-09-24T08:05:44;12.20;99.90
9265;DHT22;4669;49.594;10.958;2022-09-24T08:10:47;12.30;99.90
9265;DHT22;4669;49.594;10.958;2022-09-24T08:15:55;12.50;99.90
9265;DHT22;4669;49.594;10.958;2022-09-24T08:21:02;12.60;99.90
9265;DHT22;4669;49.594;10.958;2022-09-24T08:26:06;12.70;99.90
9265;DHT22;4669;49.594;10.958;2022-09-24T08:31:11;12.80;99.90
9265;DHT22;4669;49.594;10.958;2022-09-24T08:36:13;12.90;99.90
9265;DHT22;4669;49.594;10.958;2022-09-24T08:41:31;13.00;99.90
9265;DHT22;4669;49.594;10.958;2022-09-24T08:46:41;13.10;99.90
9265;DHT22;4669;49.594;10.958;2022-09-24T08:52:06;13.30;99.90
9265;DHT22;4669;49.594;10.958;2022-09-24T08:57:17;13.30;99.90
9265;DHT22;4669;49.594;10.958;2022-09-24T09:02:31;13.30;99.90
9265;DHT22;4669;49.594;10.958;2022-09-24T09:07:42;13.30;99.90
9265;DHT22;4669;49.594;10.958;2022-09-24T09:12:52;13.50;99.90
9265;DHT22;4669;49.594;10.958;2022-09-24T09:17:57;13.60;99.90
9265;DHT22;4669;49.594;10.958;2022-09-24T09:23:12;13.90;99.90
9265;DHT22;4669;49.594;10.958;2022-09-24T09:28:16;14.00;99.90
9265;DHT22;4669;49.594;10.958;2022-09-24T09:33:26;14.00;99.90
9265;DHT22;4669;49.594;10.958;2022-09-24T09:38:37;14.10;99.90
9265;DHT22;4669;49.594;10.958;2022-09-24T09:43:45;14.20;99.90
9265;DHT22;4669;49.594;10.958;2022-09-24T09:48:50;14.30;99.90
9265;DHT22;4669;49.594;10.958;2022-09-24T09:53:55;14.40;99.90
9265;DHT22;4669;49.594;10.958;2022-09-24T09:59:04;14.50;99.90
9265;DHT22;4669;49.594;10.958;2022-09-24T10:04:25;14.60;99.90
9265;DHT22;4669;49.594;10.958;2022-09-24T10:09:28;14.60;99.90
9265;DHT22;4669;49.594;10.958;2022-09-24T10:14:31;14.50;99.90
9265;DHT22;4669;49.594;10.958;2022-09-24T10:19:34;14.50;99.90
9265;DHT22;4669;49.594;10.958;2022-09-24T10:24:41;14.80;99.90
9265;DHT22;4669;49.594;10.958;2022-09-24T10:29:45;14.90;99.90
9265;DHT22;4669;49.594;10.958;2022-09-24T10:35:19;15.00;99.90
9265;DHT22;4669;49.594;10.958;2022-09-24T10:40:23;15.10;99.90
9265;DHT22;4669;49.594;10.958;2022-09-24T10:45:52;15.10;99.90
9265;DHT22;4669;49.594;10.958;2022-09-24T10:51:05;15.20;99.90
9265;DHT22;4669;49.594;10.958;2022-09-24T10:56:18;15.30;99.90
9265;DHT22;4669;49.594;10.958;2022-09-24T11:01:29;15.30;99.90
9265;DHT22;4669;49.594;10.958;2022-09-24T11:06:43;15.40;99.90
9265;DHT22;4669;49.594;10.958;2022-09-24T11:11:59;15.40;99.90
9265;DHT22;4669;49.594;10.958;2022-09-24T11:17:23;15.40;99.90
9265;DHT22;4669;49.594;10.958;2022-09-24T11:22:34;15.50;99.90
9265;DHT22;4669;49.594;10.958;2022-09-24T11:27:50;15.50;99.90
9265;DHT22;4669;49.594;10.958;2022-09-24T11:33:06;15.50;99.90
9265;DHT22;4669;49.594;10.958;2022-09-24T11:38:14;15.50;99.90
9265;DHT22;4669;49.594;10.958;2022-09-24T11:43:43;15.50;99.90
9265;DHT22;4669;49.594;10.958;2022-09-24T11:48:59;15.50;99.90
9265;DHT22;4669;49.594;10.958;2022-09-24T11:54:12;15.50;99.90
9265;DHT22;4669;49.594;10.958;2022-09-24T11:59:25;15.50;99.90
9265;DHT22;4669;49.594;10.958;2022-09-24T12:04:41;15.50;99.90
9265;DHT22;4669;49.594;10.958;2022-09-24T12:09:50;15.50;99.90
9265;DHT22;4669;49.594;10.958;2022-09-24T12:14:56;15.70;99.90
9265;DHT22;4669;49.594;10.958;2022-09-24T12:20:08;16.10;99.90
9265;DHT22;4669;49.594;10.958;2022-09-24T12:25:14;16.50;99.90
9265;DHT22;4669;49.594;10.958;2022-09-24T12:30:24;16.60;99.90
9265;DHT22;4669;49.594;10.958;2022-09-24T12:35:59;16.60;99.90
9265;DHT22;4669;49.594;10.958;2022-09-24T12:41:19;16.60;99.90
9265;DHT22;4669;49.594;10.958;2022-09-24T12:46:26;16.60;99.40
9265;DHT22;4669;49.594;10.958;2022-09-24T12:51:36;16.60;98.50
9265;DHT22;4669;49.594;10.958;2022-09-24T12:56:39;16.70;99.10
9265;DHT22;4669;49.594;10.958;2022-09-24T13:01:41;16.70;98.80
9265;DHT22;4669;49.594;10.958;2022-09-24T13:06:45;16.60;98.90
9265;DHT22;4669;49.594;10.958;2022-09-24T13:11:48;16.60;99.90
9265;DHT22;4669;49.594;10.958;2022-09-24T13:17:05;16.70;98.70
9265;DHT22;4669;49.594;10.958;2022-09-24T13:22:20;16.80;98.90
9265;DHT22;4669;49.594;10.958;2022-09-24T13:27:33;16.90;98.50
9265;DHT22;4669;49.594;10.958;2022-09-24T13:32:42;16.90;98.30
9265;DHT22;4669;49.594;10.958;2022-09-24T13:37:51;17.00;98.00
9265;DHT22;4669;49.594;10.958;2022-09-24T13:42:58;17.00;97.80
9265;DHT22;4669;49.594;10.958;2022-09-24T13:48:04;17.10;96.80
9265;DHT22;4669;49.594;10.958;2022-09-24T13:53:17;17.00;97.40
9265;DHT22;4669;49.594;10.958;2022-09-24T13:58:27;17.00;98.10
9265;DHT22;4669;49.594;10.958;2022-09-24T14:03:30;16.90;98.70
9265;DHT22;4669;49.594;10.958;2022-09-24T14:08:38;16.90;99.10
9265;DHT22;4669;49.594;10.958;2022-09-24T14:13:41;16.90;98.80
9265;DHT22;4669;49.594;10.958;2022-09-24T14:18:45;16.90;99.20
9265;DHT22;4669;49.594;10.958;2022-09-24T14:23:52;17.00;98.40
9265;DHT22;4669;49.594;10.958;2022-09-24T14:28:58;17.00;99.00
9265;DHT22;4669;49.594;10.958;2022-09-24T14:34:03;17.10;98.70
9265;DHT22;4669;49.594;10.958;2022-09-24T14:39:09;17.20;97.90
9265;DHT22;4669;49.594;10.958;2022-09-24T14:44:20;17.10;98.30
9265;DHT22;4669;49.594;10.958;2022-09-24T14:49:25;17.00;98.10
9265;DHT22;4669;49.594;10.958;2022-09-24T14:54:32;16.90;97.80
9265;DHT22;4669;49.594;10.958;2022-09-24T14:59:36;16.80;98.00
9265;DHT22;4669;49.594;10.958;2022-09-24T15:04:38;16.80;98.20
9265;DHT22;4669;49.594;10.958;2022-09-24T15:09:42;16.70;98.60
9265;DHT22;4669;49.594;10.958;2022-09-24T15:14:53;16.80;99.00
9265;DHT22;4669;49.594;10.958;2022-09-24T15:19:55;16.90;99.00
9265;DHT22;4669;49.594;10.958;2022-09-24T15:24:59;17.00;99.10
9265;DHT22;4669;49.594;10.958;2022-09-24T15:30:02;16.90;99.10
9265;DHT22;4669;49.594;10.958;2022-09-24T15:35:05;16.80;99.10
9265;DHT22;4669;49.594;10.958;2022-09-24T15:40:20;16.70;99.30
9265;DHT22;4669;49.594;10.958;2022-09-24T15:45:24;16.50;99.90
9265;DHT22;4669;49.594;10.958;2022-09-24T15:50:26;16.40;99.90
9265;DHT22;4669;49.594;10.958;2022-09-24T15:55:29;16.30;99.90
9265;DHT22;4669;49.594;10.958;2022-09-24T16:00:31;16.20;99.90
9265;DHT22;4669;49.594;10.958;2022-09-24T16:05:34;16.10;99.90
9265;DHT22;4669;49.594;10.958;2022-09-24T16:10:37;16.00;99.90
9265;DHT22;4669;49.594;10.958;2022-09-24T16:15:39;16.00;99.90
9265;DHT22;4669;49.594;10.958;2022-09-24T16:20:41;15.90;99.90
9265;DHT22;4669;49.594;10.958;2022-09-24T16:25:55;15.80;99.90
9265;DHT22;4669;49.594;10.958;2022-09-24T16:30:57;15.60;99.90
9265;DHT22;4669;49.594;10.958;2022-09-24T16:36:03;15.60;99.90
9265;DHT22;4669;49.594;10.958;2022-09-24T16:41:07;15.50;99.90
9265;DHT22;4669;49.594;10.958;2022-09-24T16:46:10;15.40;99.90
9265;DHT22;4669;49.594;10.958;2022-09-24T16:51:12;15.30;99.90
9265;DHT22;4669;49.594;10.958;2022-09-24T16:56:16;15.30;99.90
9265;DHT22;4669;49.594;10.958;2022-09-24T17:01:19;15.20;99.90
9265;DHT22;4669;49.594;10.958;2022-09-24T17:06:23;15.20;99.90
9265;DHT22;4669;49.594;10.958;2022-09-24T17:11:27;15.20;99.90
9265;DHT22;4669;49.594;10.958;2022-09-24T17:16:29;15.10;99.90
9265;DHT22;4669;49.594;10.958;2022-09-24T17:21:31;15.10;99.90
9265;DHT22;4669;49.594;10.958;2022-09-24T17:26:35;15.00;99.90
9265;DHT22;4669;49.594;10.958;2022-09-24T17:31:37;15.00;99.90
9265;DHT22;4669;49.594;10.958;2022-09-24T17:36:40;15.00;99.90
9265;DHT22;4669;49.594;10.958;2022-09-24T17:41:44;14.90;99.90
9265;DHT22;4669;49.594;10.958;2022-09-24T17:46:45;15.00;99.90
9265;DHT22;4669;49.594;10.958;2022-09-24T17:51:47;14.90;99.90
9265;DHT22;4669;49.594;10.958;2022-09-24T17:56:51;14.90;99.90
9265;DHT22;4669;49.594;10.958;2022-09-24T18:01:54;14.90;99.90
9265;DHT22;4669;49.594;10.958;2022-09-24T18:06:56;14.90;99.90
9265;DHT22;4669;49.594;10.958;2022-09-24T18:12:00;14.90;99.90
9265;DHT22;4669;49.594;10.958;2022-09-24T18:17:03;14.80;99.90
9265;DHT22;4669;49.594;10.958;2022-09-24T18:22:06;14.80;99.90
9265;DHT22;4669;49.594;10.958;2022-09-24T18:27:12;14.80;99.90
9265;DHT22;4669;49.594;10.958;2022-09-24T18:32:16;14.80;99.90
9265;DHT22;4669;49.594;10.958;2022-09-24T18:37:19;14.70;99.90
9265;DHT22;4669;49.594;10.958;2022-09-24T18:42:22;14.60;99.90
9265;DHT22;4669;49.594;10.958;2022-09-24T18:47:26;14.60;99.90
9265;DHT22;4669;49.594;10.958;2022-09-24T18:52:29;14.60;99.90
9265;DHT22;4669;49.594;10.958;2022-09-24T18:57:33;14.60;99.90
9265;DHT22;4669;49.594;10.958;2022-09-24T19:02:37;14.60;99.90
9265;DHT22;4669;49.594;10.958;2022-09-24T19:07:39;14.60;99.90
9265;DHT22;4669;49.594;10.958;2022-09-24T19:12:42;14.50;99.90
9265;DHT22;4669;49.594;10.958;2022-09-24T19:17:44;14.50;99.90
9265;DHT22;4669;49.594;10.958;2022-09-24T19:22:46;14.50;99.90
9265;DHT22;4669;49.594;10.958;2022-09-24T19:27:52;14.50;99.90
9265;DHT22;4669;49.594;10.958;2022-09-24T19:32:54;14.40;99.90
9265;DHT22;4669;49.594;10.958;2022-09-24T19:37:57;14.40;99.90
9265;DHT22;4669;49.594;10.958;2022-09-24T19:43:00;14.40;99.90
9265;DHT22;4669;49.594;10.958;2022-09-24T19:48:03;14.40;99.90
9265;DHT22;4669;49.594;10.958;2022-09-24T19:53:05;14.30;99.90
9265;DHT22;4669;49.594;10.958;2022-09-24T19:58:10;14.40;99.90
9265;DHT22;4669;49.594;10.958;2022-09-24T20:03:12;14.40;99.90
9265;DHT22;4669;49.594;10.958;2022-09-24T20:08:16;14.40;99.90
9265;DHT22;4669;49.594;10.958;2022-09-24T20:13:19;14.40;99.90
9265;DHT22;4669;49.594;10.958;2022-09-24T20:18:22;14.40;99.90
9265;DHT22;4669;49.594;10.958;2022-09-24T20:23:24;14.40;99.90
9265;DHT22;4669;49.594;10.958;2022-09-24T20:28:32;14.40;99.90
9265;DHT22;4669;49.594;10.958;2022-09-24T20:33:36;14.40;99.90
9265;DHT22;4669;49.594;10.958;2022-09-24T20:38:42;14.30;99.90
9265;DHT22;4669;49.594;10.958;2022-09-24T20:43:46;14.30;99.90
9265;DHT22;4669;49.594;10.958;2022-09-24T20:48:48;14.20;99.90
9265;DHT22;4669;49.594;10.958;2022-09-24T20:53:49;14.20;99.90
9265;DHT22;4669;49.594;10.958;2022-09-24T20:58:54;14.20;99.90
9265;DHT22;4669;49.594;10.958;2022-09-24T21:03:56;14.20;99.90
9265;DHT22;4669;49.594;10.958;2022-09-24T21:08:58;14.20;99.90
9265;DHT22;4669;49.594;10.958;2022-09-24T21:14:02;14.30;99.90
9265;DHT22;4669;49.594;10.958;2022-09-24T21:19:04;14.20;99.90
9265;DHT22;4669;49.594;10.958;2022-09-24T21:24:10;14.20;99.90
9265;DHT22;4669;49.594;10.958;2022-09-24T21:29:16;14.20;99.90
9265;DHT22;4669;49.594;10.958;2022-09-24T21:34:20;14.20;99.90
9265;DHT22;4669;49.594;10.958;2022-09-24T21:39:23;14.20;99.90
9265;DHT22;4669;49.594;10.958;2022-09-24T21:44:27;14.20;99.90
9265;DHT22;4669;49.594;10.958;2022-09-24T21:49:31;14.10;99.90
9265;DHT22;4669;49.594;10.958;2022-09-24T21:54:36;14.10;99.90
9265;DHT22;4669;49.594;10.958;2022-09-24T21:59:40;14.10;99.90
